Terminal Aerodrome Forecast
Issued by NWS

Home | Current Version | Previous Version | Text Only | Print | Product List | Glossary On
Versions: 1 2 3 4 5 6 7 8 9 10 11 12 13 14 15 16 17 18 19 20 21
420
FTUS41 KPBZ 051158
TAFMGW
TAF
KMGW 051158Z 0512/0612 28008KT P6SM OVC025
     FM051600 28006KT P6SM BKN040
     FM060800 10006KT P6SM BKN200=

USA.gov is the U.S. government's official web portal to all federal, state and local government web resources and services.